Time;durP1;ratioP1;P1;durP2;ratioP2;P2;SDS_P1;SDS_P2;PMS_P1;PMS_P2;Temp;Humidity;BMP_temperature;BMP_pressure;BME280_temperature;BME280_humidity;BME280_pressure;Samples;Min_cycle;Max_cycle;Signal;HPM_P1;HPM_P2
2022/03/10 00:02:47;;;;;;;12.45;7.80;;;;;;;-1.19;69.24;101989.52;3471213;81;21461;-66
2022/03/10 00:07:35;;;;;;;13.85;8.40;;;;;;;-1.20;69.34;102004.69;3439649;81;20978;-66
2022/03/10 00:12:27;;;;;;;12.55;7.83;;;;;;;-1.24;69.40;102003.53;3491606;81;20983;-66
2022/03/10 00:17:17;;;;;;;13.70;8.53;;;;;;;-1.31;69.35;102008.88;3410842;81;21976;-66
2022/03/10 00:22:11;;;;;;;12.33;7.72;;;;;;;-1.33;69.34;102012.08;3490837;80;20956;-66
2022/03/10 00:27:02;;;;;;;13.43;7.58;;;;;;;-1.38;69.47;102016.78;3443039;81;21002;-67
2022/03/10 00:31:53;;;;;;;12.78;8.35;;;;;;;-1.45;69.34;102023.03;3432730;82;21524;-66
2022/03/10 00:36:45;;;;;;;13.48;8.55;;;;;;;-1.50;69.57;102020.82;3474554;81;21016;-66
2022/03/10 00:41:37;;;;;;;15.72;10.00;;;;;;;-1.54;69.55;102025.68;3467420;80;21930;-66
2022/03/10 00:46:28;;;;;;;15.30;8.15;;;;;;;-1.58;69.52;102032.53;3446983;82;20979;-66
2022/03/10 00:51:19;;;;;;;13.15;7.90;;;;;;;-1.64;69.63;102038.39;3443005;81;20959;-66
2022/03/10 00:56:10;;;;;;;12.98;8.40;;;;;;;-1.65;69.72;102041.69;3445977;81;20967;-66
2022/03/10 01:01:01;;;;;;;14.95;8.60;;;;;;;-1.73;69.09;102050.34;3438435;81;21173;-66
2022/03/10 01:05:52;;;;;;;14.70;8.45;;;;;;;-1.88;68.79;102056.23;3456994;81;21472;-66
2022/03/10 01:10:44;;;;;;;15.88;8.75;;;;;;;-2.02;68.95;102065.59;3395427;82;20932;-66
2022/03/10 01:15:35;;;;;;;15.75;8.38;;;;;;;-2.16;68.64;102061.84;3413809;81;20971;-66
2022/03/10 01:20:26;;;;;;;15.18;9.05;;;;;;;-2.25;69.20;102068.63;3456691;80;20913;-66
2022/03/10 01:25:19;;;;;;;13.40;8.10;;;;;;;-2.32;68.84;102074.84;3399788;82;22082;-66
2022/03/10 01:30:12;;;;;;;13.35;7.60;;;;;;;-2.41;68.76;102074.91;3445082;82;21374;-66
2022/03/10 01:35:06;;;;;;;16.60;8.23;;;;;;;-2.49;68.69;102082.21;3477862;82;21496;-66
2022/03/10 01:39:57;;;;;;;12.15;7.22;;;;;;;-2.53;68.81;102078.48;3376677;82;21262;-66
2022/03/10 01:44:54;;;;;;;13.22;8.80;;;;;;;-2.59;68.79;102088.52;3427746;82;21603;-67
2022/03/10 01:49:45;;;;;;;10.98;7.33;;;;;;;-2.71;68.66;102101.89;3411372;82;20959;-66
2022/03/10 01:54:37;;;;;;;16.35;9.58;;;;;;;-2.77;68.80;102107.70;3428793;82;21082;-67
2022/03/10 01:59:28;;;;;;;14.58;9.38;;;;;;;-2.84;68.87;102110.43;3402826;82;21010;-66
2022/03/10 02:04:19;;;;;;;18.50;10.18;;;;;;;-2.89;69.06;102111.65;3447592;82;20992;-66
2022/03/10 02:19:29;;;;;;;21.68;11.00;;;;;;;-3.14;68.67;102147.89;3436083;82;21297;-66
2022/03/10 02:24:20;;;;;;;31.30;13.88;;;;;;;-3.22;68.63;102153.89;3398260;82;21461;-66
2022/03/10 02:29:11;;;;;;;31.85;13.22;;;;;;;-3.27;68.87;102147.11;3463677;82;21649;-66
2022/03/10 02:34:02;;;;;;;34.58;14.07;;;;;;;-3.31;68.88;102146.27;3413595;82;20908;-66
2022/03/10 02:38:53;;;;;;;31.97;14.87;;;;;;;-3.35;68.43;102165.43;3458659;82;20975;-66
2022/03/10 02:43:44;;;;;;;27.40;14.65;;;;;;;-3.41;68.37;102166.13;3443358;82;21000;-66
2022/03/10 02:48:35;;;;;;;32.25;14.18;;;;;;;-3.45;69.26;102172.56;3439637;82;21078;-66
2022/03/10 02:53:26;;;;;;;29.20;13.65;;;;;;;-3.45;68.82;102178.92;3452657;81;20972;-65
2022/03/10 02:58:17;;;;;;;22.15;12.78;;;;;;;-3.46;69.35;102186.02;3452803;82;20889;-65
2022/03/10 03:03:09;;;;;;;20.75;11.40;;;;;;;-3.44;69.55;102193.80;3470124;82;21699;-66
2022/03/10 03:08:00;;;;;;;20.45;12.37;;;;;;;-3.40;69.85;102201.34;3451941;82;21859;-66
2022/03/10 03:12:52;;;;;;;15.90;9.80;;;;;;;-3.36;70.21;102213.60;3415297;82;21064;-66
2022/03/10 03:17:43;;;;;;;13.30;8.45;;;;;;;-3.30;70.35;102220.57;3428766;82;20943;-66
2022/03/10 03:22:34;;;;;;;17.05;10.23;;;;;;;-3.25;70.37;102228.28;3430628;82;20939;-65
2022/03/10 03:27:25;;;;;;;19.37;9.45;;;;;;;-3.25;70.23;102225.73;3417590;82;21010;-66
2022/03/10 03:32:16;;;;;;;13.50;8.43;;;;;;;-3.30;70.24;102235.84;3418702;82;21067;-66
2022/03/10 03:37:08;;;;;;;13.83;7.65;;;;;;;-3.28;70.26;102243.23;3443249;82;21290;-66
2022/03/10 03:41:59;;;;;;;15.23;8.25;;;;;;;-3.32;70.08;102243.70;3357984;82;20978;-66
2022/03/10 03:46:50;;;;;;;14.58;9.03;;;;;;;-3.41;70.12;102258.06;3391177;82;20951;-66
2022/03/10 03:51:41;;;;;;;15.72;9.05;;;;;;;-3.53;69.69;102259.02;3402914;82;20990;-66
2022/03/10 03:56:35;;;;;;;14.83;9.20;;;;;;;-3.63;70.04;102263.59;3412538;82;21532;-66
2022/03/10 04:01:27;;;;;;;18.25;10.05;;;;;;;-3.67;70.29;102272.56;3442499;82;21029;-65
2022/03/10 04:06:18;;;;;;;16.12;8.25;;;;;;;-3.75;70.23;102278.90;3460361;82;21042;-66
2022/03/10 04:11:09;;;;;;;13.98;8.23;;;;;;;-3.87;70.15;102287.08;3408591;82;21478;-65
2022/03/10 04:16:00;;;;;;;17.90;8.93;;;;;;;-3.97;70.28;102288.19;3454275;82;20961;-65
2022/03/10 04:20:52;;;;;;;15.80;8.30;;;;;;;-4.01;70.45;102298.77;3412172;82;20967;-66
2022/03/10 04:25:43;;;;;;;13.80;8.33;;;;;;;-4.06;70.38;102296.13;3428602;82;20995;-65
2022/03/10 04:30:34;;;;;;;13.93;7.83;;;;;;;-4.13;70.52;102301.34;3406579;82;21477;-65
2022/03/10 04:35:26;;;;;;;17.15;8.90;;;;;;;-4.25;70.10;102310.80;3472743;82;21644;-65
2022/03/10 04:40:19;;;;;;;15.80;8.45;;;;;;;-4.37;69.93;102311.19;3445790;82;20940;-66
2022/03/10 04:45:11;;;;;;;21.25;10.60;;;;;;;-4.50;70.12;102317.55;3423761;82;21061;-66
2022/03/10 04:50:05;;;;;;;14.47;8.63;;;;;;;-4.60;70.07;102318.25;3450416;82;20957;-65
2022/03/10 04:55:18;;;;;;;14.87;8.10;;;;;;;-4.70;70.05;102333.26;3456902;82;20943;-65
2022/03/10 05:00:11;;;;;;;15.18;8.05;;;;;;;-4.76;70.28;102338.95;3435245;80;21453;-65
2022/03/10 05:05:05;;;;;;;16.00;8.38;;;;;;;-4.83;70.47;102338.70;3405797;80;21406;-66
2022/03/10 05:09:56;;;;;;;19.62;9.48;;;;;;;-4.89;70.26;102352.37;3419087;80;21253;-67
2022/03/10 05:14:48;;;;;;;11.20;7.37;;;;;;;-4.96;69.73;102358.81;3436924;80;21054;-66
2022/03/10 05:19:39;;;;;;;11.50;7.47;;;;;;;-5.01;70.04;102368.11;3443099;82;21458;-66
2022/03/10 05:24:29;;;;;;;15.78;8.15;;;;;;;-5.05;69.69;102380.30;3543431;78;25341;-66
2022/03/10 05:29:21;;;;;;;16.70;8.23;;;;;;;-5.14;69.68;102389.09;3505766;78;22261;-66
2022/03/10 05:34:11;;;;;;;13.53;7.53;;;;;;;-5.18;69.66;102389.52;3543249;78;20956;-66
2022/03/10 05:39:04;;;;;;;12.65;7.95;;;;;;;-5.21;69.79;102397.67;3525466;78;20916;-67
2022/03/10 05:43:56;;;;;;;13.85;8.58;;;;;;;-5.22;69.59;102421.25;3475222;78;20935;-67
2022/03/10 05:48:47;;;;;;;15.18;9.15;;;;;;;-5.20;69.59;102420.16;3528230;78;20993;-66
2022/03/10 05:53:38;;;;;;;14.95;7.90;;;;;;;-4.99;69.48;102436.40;3520990;78;21734;-66
2022/03/10 05:58:29;;;;;;;21.40;11.00;;;;;;;-4.99;69.48;102436.40;3574267;79;21348;-67
2022/03/10 06:03:20;;;;;;;17.87;9.58;;;;;;;-4.83;70.32;102441.81;3560834;79;20919;-66
2022/03/10 06:08:11;;;;;;;14.83;8.70;;;;;;;-4.64;70.27;102449.38;3587337;79;20932;-66
2022/03/10 06:13:02;;;;;;;15.50;9.40;;;;;;;-4.44;70.06;102462.00;3513967;79;20998;-67
2022/03/10 06:17:54;;;;;;;17.42;9.20;;;;;;;-4.32;69.88;102465.83;3560664;79;21523;-67
2022/03/10 06:22:46;;;;;;;12.53;7.47;;;;;;;-4.17;69.62;102471.59;3563059;78;22105;-66
2022/03/10 06:27:37;;;;;;;12.73;7.92;;;;;;;-4.00;69.26;102483.53;3558504;79;21070;-66
2022/03/10 06:32:28;;;;;;;12.05;6.45;;;;;;;-3.73;68.73;102489.66;3565899;79;20880;-67
2022/03/10 06:37:20;;;;;;;13.50;6.60;;;;;;;-3.73;68.73;102489.66;3557246;79;21922;-66
2022/03/10 06:42:11;;;;;;;8.78;5.17;;;;;;;-3.66;68.58;102504.80;3596962;78;20936;-66
2022/03/10 06:47:07;;;;;;;11.18;6.42;;;;;;;-3.35;67.98;102504.11;3577406;79;21929;-67
2022/03/10 06:51:58;;;;;;;12.25;5.50;;;;;;;-2.61;66.51;102503.47;3555092;79;20936;-66
2022/03/10 06:56:49;;;;;;;12.65;5.67;;;;;;;-2.45;65.97;102510.97;3543757;79;20876;-67
2022/03/10 07:01:40;;;;;;;14.20;6.10;;;;;;;-2.39;65.46;102510.66;3575696;79;21006;-67
2022/03/10 07:06:31;;;;;;;11.85;5.40;;;;;;;-1.78;64.68;102509.30;3551862;79;20974;-67
2022/03/10 07:11:23;;;;;;;11.15;5.92;;;;;;;-1.87;64.38;102519.91;3574449;79;20970;-66
2022/03/10 07:16:15;;;;;;;13.90;5.65;;;;;;;-2.13;64.26;102523.38;3554726;79;20995;-67
2022/03/10 07:21:06;;;;;;;11.85;5.40;;;;;;;-2.24;64.29;102519.78;3532458;78;21063;-67
2022/03/10 07:25:58;;;;;;;9.45;6.42;;;;;;;-2.27;64.14;102523.33;3471743;79;20967;-67
2022/03/10 07:30:49;;;;;;;8.48;4.72;;;;;;;-2.28;63.98;102529.55;3517868;79;21231;-67
2022/03/10 07:35:41;;;;;;;7.47;4.72;;;;;;;-2.23;63.63;102533.45;3526885;79;20953;-66
2022/03/10 07:40:32;;;;;;;13.65;5.00;;;;;;;-2.21;63.12;102537.04;3498074;79;20930;-66
2022/03/10 07:45:24;;;;;;;11.03;5.42;;;;;;;-2.13;62.67;102534.84;3485691;79;21512;-66
2022/03/10 07:50:15;;;;;;;16.42;5.45;;;;;;;-0.29;60.87;102529.43;3545796;79;21559;-66
2022/03/10 07:55:08;;;;;;;7.85;5.47;;;;;;;-0.19;60.22;102523.50;3502897;79;21018;-66
2022/03/10 08:00:00;;;;;;;10.03;5.62;;;;;;;2.53;56.99;102514.98;3576238;78;21857;-67
2022/03/10 08:04:51;;;;;;;6.27;4.90;;;;;;;5.07;54.44;102514.20;3557148;79;20943;-66
2022/03/10 08:09:42;;;;;;;6.55;5.42;;;;;;;9.46;50.79;102493.08;3551662;79;22193;-67
2022/03/10 08:14:33;;;;;;;5.80;5.20;;;;;;;11.84;47.55;102500.73;3581148;79;21630;-67
2022/03/10 08:19:24;;;;;;;7.10;5.08;;;;;;;10.09;48.72;102507.81;3509952;79;21563;-66
2022/03/10 08:24:15;;;;;;;6.20;4.60;;;;;;;10.52;46.58;102503.77;3536672;79;21063;-67
2022/03/10 08:29:07;;;;;;;7.00;5.25;;;;;;;12.74;43.72;102495.93;3514139;79;21512;-66
2022/03/10 08:33:58;;;;;;;5.28;4.78;;;;;;;13.21;41.91;102494.10;3518096;77;20948;-67
2022/03/10 08:38:49;;;;;;;4.20;3.80;;;;;;;15.25;40.17;102486.77;3554316;77;20944;-67
2022/03/10 08:43:40;;;;;;;9.35;4.60;;;;;;;11.35;40.21;102507.39;3572599;79;20956;-66
2022/03/10 08:48:34;;;;;;;5.87;4.03;;;;;;;9.34;39.74;102519.72;3568614;78;21453;-66
2022/03/10 08:53:26;;;;;;;5.90;4.35;;;;;;;7.18;41.34;102519.48;3564192;79;20909;-66
2022/03/10 08:58:18;;;;;;;3.83;3.45;;;;;;;8.90;40.18;102514.41;3505644;77;20940;-66
2022/03/10 09:03:09;;;;;;;6.10;3.90;;;;;;;9.32;39.33;102517.45;3535058;79;20944;-66
2022/03/10 09:08:01;;;;;;;6.90;4.40;;;;;;;10.10;39.15;102511.30;3503240;79;20952;-67
2022/03/10 09:12:52;;;;;;;5.22;3.92;;;;;;;10.29;38.55;102508.75;3548582;78;21122;-67
2022/03/10 09:17:44;;;;;;;4.65;4.12;;;;;;;9.80;38.76;102509.02;3491538;79;21383;-66
2022/03/10 09:22:35;;;;;;;6.12;4.50;;;;;;;9.27;38.27;102515.03;3554561;79;21406;-66
2022/03/10 09:27:26;;;;;;;13.65;6.53;;;;;;;9.31;38.23;102513.06;3543788;79;21482;-66
2022/03/10 09:32:18;;;;;;;4.75;3.90;;;;;;;9.72;37.39;102503.85;3521600;79;21282;-66
2022/03/10 09:37:09;;;;;;;4.12;3.40;;;;;;;9.85;36.46;102504.03;3593030;78;21903;-67
2022/03/10 09:42:05;;;;;;;3.77;3.47;;;;;;;11.52;35.30;102496.40;3573648;78;20987;-66
2022/03/10 09:47:02;;;;;;;4.67;3.90;;;;;;;11.05;33.73;102500.07;3579948;79;21413;-66
2022/03/10 09:51:50;;;;;;;5.62;3.98;;;;;;;10.67;34.13;102505.74;3551211;79;20962;-67
2022/03/10 09:56:43;;;;;;;5.12;3.50;;;;;;;12.56;34.30;102495.72;3560467;78;20950;-67
2022/03/10 10:01:34;;;;;;;3.52;3.10;;;;;;;13.45;31.78;102495.80;3476464;79;21890;-68
2022/03/10 10:06:25;;;;;;;3.27;2.98;;;;;;;13.20;30.95;102510.63;3504838;79;20968;-68
2022/03/10 10:11:16;;;;;;;4.08;3.47;;;;;;;13.29;31.61;102511.37;3503006;79;20936;-67
2022/03/10 10:16:14;;;;;;;6.30;4.53;;;;;;;13.65;30.95;102498.67;3537887;79;21974;-67
2022/03/10 10:21:07;;;;;;;4.60;3.77;;;;;;;14.78;30.45;102513.45;3490276;79;20976;-68
2022/03/10 10:26:13;;;;;;;5.47;4.45;;;;;;;15.18;30.12;102511.92;3583270;79;21473;-67
2022/03/10 10:31:11;;;;;;;4.53;3.47;;;;;;;15.97;29.38;102516.52;3583208;79;21520;-67
2022/03/10 10:36:25;;;;;;;4.50;4.05;;;;;;;15.77;27.76;102519.59;3494504;78;20951;-68
2022/03/10 10:41:24;;;;;;;3.83;3.45;;;;;;;15.72;29.28;102515.02;3491511;79;20944;-68
2022/03/10 10:46:35;;;;;;;4.30;3.90;;;;;;;15.45;27.73;102509.55;3540592;77;21025;-68
2022/03/10 10:51:37;;;;;;;5.05;3.98;;;;;;;15.01;27.79;102520.64;3522966;79;21536;-68
2022/03/10 10:56:30;;;;;;;3.52;3.22;;;;;;;16.08;26.58;102516.77;3471755;79;20951;-68
2022/03/10 11:01:36;;;;;;;4.25;3.92;;;;;;;15.47;27.33;102517.06;3590938;78;20975;-67
2022/03/10 11:06:27;;;;;;;4.20;3.80;;;;;;;16.19;26.97;102513.98;3552132;78;20904;-68
2022/03/10 11:11:21;;;;;;;4.85;3.83;;;;;;;16.82;26.01;102517.05;3592393;78;38953;-68
2022/03/10 11:16:16;;;;;;;3.70;3.37;;;;;;;16.81;26.31;102512.20;3481161;79;21846;-68
2022/03/10 11:21:29;;;;;;;4.37;3.90;;;;;;;16.70;25.06;102509.36;3579014;78;21186;-68
2022/03/10 11:26:39;;;;;;;4.25;3.70;;;;;;;17.02;25.74;102509.14;3547026;78;20919;-67
2022/03/10 11:31:32;;;;;;;5.72;3.08;;;;;;;16.66;25.76;102500.97;3503711;80;20919;-68
2022/03/10 11:36:30;;;;;;;4.87;3.70;;;;;;;16.48;25.56;102501.91;3452074;80;20951;-66
2022/03/10 11:41:44;;;;;;;4.17;3.87;;;;;;;15.94;25.31;102512.11;3415938;81;22078;-66
2022/03/10 11:46:36;;;;;;;4.90;3.40;;;;;;;16.08;25.40;102504.97;3492221;80;20955;-66
2022/03/10 11:51:57;;;;;;;3.80;3.40;;;;;;;15.35;24.80;102506.26;3455312;80;20931;-66
2022/03/10 11:56:59;;;;;;;4.87;3.65;;;;;;;15.08;25.91;102507.30;3412188;82;20976;-67
2022/03/10 12:01:53;;;;;;;4.08;3.65;;;;;;;15.48;26.30;102501.77;3384782;83;20952;-68
2022/03/10 12:06:56;;;;;;;3.12;2.83;;;;;;;14.54;26.07;102497.92;3369493;81;21991;-66
2022/03/10 12:11:49;;;;;;;3.83;3.17;;;;;;;12.80;26.60;102515.72;3450288;80;22381;-66
2022/03/10 12:16:40;;;;;;;3.05;2.67;;;;;;;11.03;26.99;102512.09;3453318;81;20924;-67
2022/03/10 12:21:31;;;;;;;4.90;3.33;;;;;;;9.71;27.39;102514.66;3421433;82;21694;-68
2022/03/10 12:26:35;;;;;;;3.95;2.98;;;;;;;8.96;28.70;102514.33;3484413;80;21477;-67
2022/03/10 12:31:29;;;;;;;4.30;3.42;;;;;;;8.43;28.79;102521.84;3435732;82;21469;-67
2022/03/10 12:36:28;;;;;;;7.00;3.65;;;;;;;8.16;29.63;102516.89;3463232;80;20908;-67
2022/03/10 12:41:21;;;;;;;4.97;3.58;;;;;;;7.52;29.27;102512.41;3460677;80;20959;-67
2022/03/10 12:46:12;;;;;;;4.67;3.50;;;;;;;7.50;30.40;102514.44;3400185;82;20983;-67
2022/03/10 12:51:03;;;;;;;5.62;3.95;;;;;;;7.37;30.50;102521.89;3485995;80;22103;-67
2022/03/10 12:55:56;;;;;;;6.00;3.10;;;;;;;7.20;30.13;102511.41;3438659;80;21497;-67
2022/03/10 13:00:47;;;;;;;3.80;3.08;;;;;;;7.02;30.04;102515.48;3384200;81;21714;-67
2022/03/10 13:05:38;;;;;;;7.03;3.27;;;;;;;7.00;30.57;102514.52;3566537;78;21038;-67
2022/03/10 13:10:30;;;;;;;4.00;3.42;;;;;;;7.08;30.44;102509.79;3603234;77;21006;-67
2022/03/10 13:15:25;;;;;;;3.42;3.12;;;;;;;6.69;30.46;102512.66;3567295;79;22077;-66
2022/03/10 13:20:20;;;;;;;3.98;3.52;;;;;;;6.68;31.16;102510.85;3598076;78;21927;-68
2022/03/10 13:25:12;;;;;;;3.98;3.58;;;;;;;6.69;31.16;102515.23;3574146;78;21034;-68
2022/03/10 13:30:05;;;;;;;4.45;3.55;;;;;;;6.50;31.71;102502.86;3578516;78;20950;-66
2022/03/10 13:35:02;;;;;;;5.97;3.40;;;;;;;6.27;31.07;102506.58;3505465;76;20899;-66
2022/03/10 13:39:54;;;;;;;4.10;3.60;;;;;;;5.94;31.55;102511.36;3557497;77;27182;-66
2022/03/10 13:44:45;;;;;;;6.35;3.70;;;;;;;6.00;31.83;102519.52;3601500;77;21073;-66
2022/03/10 13:49:45;;;;;;;4.10;2.90;;;;;;;5.74;31.57;102528.11;3605019;77;20868;-66
2022/03/10 13:54:38;;;;;;;4.67;3.10;;;;;;;5.63;31.68;102522.24;3558788;77;21144;-66
2022/03/10 13:59:31;;;;;;;4.33;3.40;;;;;;;5.52;31.19;102510.33;3619434;77;20951;-67
2022/03/10 14:04:22;;;;;;;4.17;2.92;;;;;;;5.30;31.64;102512.77;3589930;78;20999;-67
2022/03/10 14:09:22;;;;;;;6.55;3.45;;;;;;;5.06;32.02;102508.53;3525688;79;22596;-67
2022/03/10 14:14:14;;;;;;;6.40;3.00;;;;;;;4.92;31.98;102513.65;3543970;79;20901;-67
2022/03/10 14:19:06;;;;;;;7.30;3.08;;;;;;;4.76;31.75;102514.27;3601645;77;20947;-68
2022/03/10 14:24:02;;;;;;;4.87;3.50;;;;;;;4.56;31.86;102510.68;3549606;78;20987;-68
2022/03/10 14:28:55;;;;;;;6.17;4.30;;;;;;;4.46;32.11;102504.00;3603539;77;20932;-67
2022/03/10 14:33:46;;;;;;;2.87;2.37;;;;;;;4.56;32.34;102501.30;3585446;78;21083;-68
2022/03/10 14:38:39;;;;;;;11.03;3.58;;;;;;;4.48;31.84;102512.73;3540234;77;21021;-68
2022/03/10 14:43:31;;;;;;;4.00;2.70;;;;;;;4.39;31.56;102512.09;3519581;78;21603;-67
2022/03/10 14:48:22;;;;;;;4.08;3.15;;;;;;;4.18;31.55;102521.34;3576393;78;20978;-66
2022/03/10 14:53:13;;;;;;;5.25;3.35;;;;;;;3.99;31.94;102518.25;3537429;78;20951;-67
2022/03/10 14:58:05;;;;;;;4.90;3.05;;;;;;;3.90;31.79;102519.77;3599271;78;21114;-67
2022/03/10 15:02:57;;;;;;;5.67;3.30;;;;;;;3.68;31.59;102521.53;3579453;78;20963;-67
2022/03/10 15:07:50;;;;;;;5.08;3.37;;;;;;;3.64;32.19;102519.13;3507737;78;20932;-67
2022/03/10 15:12:45;;;;;;;7.78;5.17;;;;;;;3.57;32.35;102513.03;3528005;79;21038;-67
2022/03/10 15:17:38;;;;;;;6.35;4.87;;;;;;;3.57;32.33;102514.31;3598105;78;21007;-66
2022/03/10 15:22:30;;;;;;;5.17;3.85;;;;;;;3.48;32.00;102527.78;3514978;78;20999;-67
2022/03/10 15:27:23;;;;;;;4.37;3.00;;;;;;;3.46;32.47;102534.09;3615113;78;20982;-67
2022/03/10 15:32:16;;;;;;;5.17;3.12;;;;;;;3.39;32.34;102528.87;3555460;79;20931;-67
2022/03/10 15:37:08;;;;;;;6.25;3.27;;;;;;;3.15;32.54;102534.35;3549052;78;21473;-66
2022/03/10 15:42:02;;;;;;;6.78;3.42;;;;;;;2.91;32.91;102541.06;3582028;78;21006;-67
2022/03/10 15:46:55;;;;;;;4.45;3.35;;;;;;;2.71;33.06;102546.34;3540799;79;21021;-66
2022/03/10 15:51:47;;;;;;;5.25;3.52;;;;;;;2.50;33.47;102551.56;3583470;77;21073;-67
2022/03/10 15:56:43;;;;;;;8.48;3.95;;;;;;;2.33;33.64;102546.80;3569148;79;21003;-66
2022/03/10 16:01:38;;;;;;;10.80;4.40;;;;;;;2.20;34.10;102551.30;3539080;78;20920;-66
2022/03/10 16:06:38;;;;;;;6.15;3.87;;;;;;;2.05;34.21;102559.96;3543939;78;20975;-66
2022/03/10 16:11:26;;;;;;;8.45;4.37;;;;;;;1.96;34.59;102560.50;3537656;79;21026;-67
2022/03/10 16:16:18;;;;;;;7.60;4.72;;;;;;;1.80;34.74;102560.52;3611321;78;20935;-66
2022/03/10 16:21:10;;;;;;;7.80;3.60;;;;;;;1.66;34.95;102572.59;3578499;78;20928;-66
2022/03/10 16:26:02;;;;;;;6.45;3.30;;;;;;;1.55;35.32;102571.70;3545015;78;20943;-66
2022/03/10 16:30:54;;;;;;;7.15;3.70;;;;;;;1.40;35.34;102580.70;3606710;78;21010;-67
2022/03/10 16:35:50;;;;;;;13.78;5.58;;;;;;;1.27;35.61;102583.87;3544417;78;21876;-66
2022/03/10 16:40:42;;;;;;;14.83;7.33;;;;;;;1.14;35.95;102585.42;3575799;78;20994;-66
2022/03/10 16:45:34;;;;;;;10.55;6.35;;;;;;;1.03;36.27;102588.72;3542130;78;21014;-66
2022/03/10 16:50:27;;;;;;;9.00;4.95;;;;;;;0.93;36.46;102596.36;3596992;78;20907;-66
2022/03/10 16:55:19;;;;;;;19.73;5.30;;;;;;;0.84;36.57;102603.27;3591204;79;20955;-66
2022/03/10 17:00:14;;;;;;;6.47;3.92;;;;;;;0.69;36.83;102595.16;3572113;78;21665;-66
2022/03/10 17:05:07;;;;;;;7.20;4.70;;;;;;;0.60;37.09;102602.94;3628983;77;21522;-66
2022/03/10 17:09:59;;;;;;;9.33;5.35;;;;;;;0.48;37.32;102606.97;3584471;78;21674;-66
2022/03/10 17:14:51;;;;;;;11.55;5.85;;;;;;;0.42;37.56;102606.45;3564993;78;20951;-66
2022/03/10 17:19:44;;;;;;;10.60;7.17;;;;;;;0.37;37.70;102612.03;3607687;78;21425;-66
2022/03/10 17:24:37;;;;;;;11.63;6.20;;;;;;;0.28;38.01;102622.73;3484290;80;20936;-67
2022/03/10 17:29:34;;;;;;;9.00;6.65;;;;;;;0.20;38.06;102614.78;3453168;80;20932;-67
2022/03/10 17:34:26;;;;;;;9.85;5.90;;;;;;;0.13;38.16;102621.39;3429711;80;21488;-67
2022/03/10 17:39:20;;;;;;;13.43;6.10;;;;;;;0.06;38.25;102621.60;3495495;80;21407;-66
2022/03/10 17:44:12;;;;;;;10.28;5.78;;;;;;;0.05;38.49;102628.74;3477779;80;20916;-66
2022/03/10 17:49:05;;;;;;;19.40;9.38;;;;;;;-0.07;38.64;102635.84;3410313;81;21721;-66
2022/03/10 17:53:58;;;;;;;11.00;6.22;;;;;;;-0.19;38.93;102638.55;3453534;82;20952;-67
2022/03/10 17:58:50;;;;;;;14.47;7.83;;;;;;;-0.27;39.08;102636.94;3450648;80;20955;-66
2022/03/10 18:03:43;;;;;;;74.07;12.82;;;;;;;-0.42;39.41;102649.23;3451990;82;21395;-66
2022/03/10 18:08:34;;;;;;;27.70;7.47;;;;;;;-0.55;39.83;102651.03;3419317;81;20885;-65
2022/03/10 18:13:27;;;;;;;20.72;9.20;;;;;;;-0.68;39.88;102654.46;3435730;81;20949;-66
2022/03/10 18:18:19;;;;;;;19.42;7.10;;;;;;;-0.77;40.11;102654.14;3424983;82;20949;-66
2022/03/10 18:23:11;;;;;;;15.70;8.10;;;;;;;-0.87;40.14;102660.41;3403409;81;20968;-65
2022/03/10 18:28:05;;;;;;;17.70;7.50;;;;;;;-0.96;40.34;102659.55;3378450;81;20960;-66
2022/03/10 18:32:58;;;;;;;15.95;9.33;;;;;;;-1.06;40.56;102664.14;3407014;81;20972;-66
2022/03/10 18:37:50;;;;;;;12.78;7.00;;;;;;;-1.10;40.85;102665.00;3392839;81;21019;-66
2022/03/10 18:42:42;;;;;;;11.95;6.90;;;;;;;-1.19;40.99;102672.29;3368617;81;21150;-66
2022/03/10 18:47:35;;;;;;;12.95;6.80;;;;;;;-1.25;41.27;102666.97;3396667;83;20953;-66
2022/03/10 18:52:27;;;;;;;14.63;7.22;;;;;;;-1.36;41.50;102669.41;3393083;82;20993;-65
2022/03/10 18:57:20;;;;;;;15.80;8.08;;;;;;;-1.45;41.64;102672.36;3407533;81;21027;-66
2022/03/10 19:02:12;;;;;;;30.35;10.55;;;;;;;-1.56;41.59;102668.77;3347031;82;21925;-66
2022/03/10 19:07:06;;;;;;;14.65;7.78;;;;;;;-1.66;41.94;102678.82;3388710;82;20976;-66
2022/03/10 19:11:58;;;;;;;14.93;7.85;;;;;;;-1.72;42.22;102676.93;3393817;81;21543;-66
2022/03/10 19:16:51;;;;;;;13.55;7.80;;;;;;;-1.81;42.15;102680.75;3368910;82;21469;-66
2022/03/10 19:21:48;;;;;;;19.15;9.23;;;;;;;-1.90;42.73;102682.78;3357484;82;21717;-66
2022/03/10 19:26:40;;;;;;;15.78;8.93;;;;;;;-2.00;43.07;102674.23;3373828;82;26808;-66
2022/03/10 19:31:34;;;;;;;16.02;8.53;;;;;;;-2.09;43.01;102675.88;3397467;82;20956;-66
2022/03/10 19:36:26;;;;;;;16.30;10.00;;;;;;;-2.16;43.54;102681.11;3351323;82;21450;-66
2022/03/10 19:41:20;;;;;;;18.10;9.50;;;;;;;-2.25;43.65;102687.81;3408421;82;21466;-66
2022/03/10 19:46:12;;;;;;;17.85;8.65;;;;;;;-2.36;43.79;102691.48;3414393;82;20976;-66
2022/03/10 19:51:06;;;;;;;15.68;7.35;;;;;;;-2.43;43.99;102690.34;3378585;82;21048;-68
2022/03/10 19:55:58;;;;;;;19.02;8.63;;;;;;;-2.50;44.33;102682.83;3366625;83;21587;-66
2022/03/10 20:00:51;;;;;;;23.15;9.50;;;;;;;-2.59;44.42;102684.45;3375700;82;21023;-66
2022/03/10 20:05:43;;;;;;;24.35;9.68;;;;;;;-2.67;44.62;102686.58;3456469;81;21002;-66
2022/03/10 20:10:38;;;;;;;18.15;10.28;;;;;;;-2.77;44.94;102684.72;3357873;82;21631;-66
2022/03/10 20:15:30;;;;;;;21.87;12.03;;;;;;;-2.88;45.23;102695.08;3417520;81;22178;-66
2022/03/10 20:20:22;;;;;;;21.87;12.45;;;;;;;-3.01;45.24;102685.67;3455877;81;20975;-66
2022/03/10 20:25:15;;;;;;;22.07;11.43;;;;;;;-3.08;45.48;102683.78;3403130;81;21489;-66
2022/03/10 20:30:08;;;;;;;24.52;11.68;;;;;;;-3.17;45.72;102689.53;3419600;81;20996;-66
2022/03/10 20:35:01;;;;;;;23.32;12.47;;;;;;;-3.29;45.75;102686.61;3457418;81;20894;-66
2022/03/10 20:39:53;;;;;;;27.45;12.63;;;;;;;-3.40;45.97;102690.95;3484333;80;21106;-67
2022/03/10 20:44:47;;;;;;;26.12;13.25;;;;;;;-3.52;46.03;102695.30;3486301;80;21018;-66
2022/03/10 20:49:39;;;;;;;29.40;15.65;;;;;;;-3.58;46.14;102696.28;3438837;80;21003;-66
2022/03/10 20:54:32;;;;;;;34.83;17.40;;;;;;;-3.67;46.25;102701.30;3421019;81;21006;-66
2022/03/10 20:59:24;;;;;;;36.33;19.65;;;;;;;-3.74;46.75;102697.57;3430778;80;21564;-66
2022/03/10 21:04:18;;;;;;;34.35;17.70;;;;;;;-3.79;47.13;102698.72;3575622;79;21442;-66
2022/03/10 21:09:10;;;;;;;39.35;20.43;;;;;;;-3.89;47.18;102697.75;3547861;79;20994;-66
2022/03/10 21:14:03;;;;;;;48.28;26.12;;;;;;;-3.97;47.18;102707.48;3473578;78;20943;-66
2022/03/10 21:18:55;;;;;;;56.33;28.50;;;;;;;-4.07;47.28;102708.49;3569773;78;20923;-66
2022/03/10 21:23:47;;;;;;;55.45;26.40;;;;;;;-4.19;47.34;102708.44;3549313;78;20983;-66
2022/03/10 21:28:40;;;;;;;46.33;23.27;;;;;;;-4.29;47.60;102706.52;3547689;79;21889;-66
2022/03/10 21:33:33;;;;;;;45.80;22.30;;;;;;;-4.38;47.65;102712.80;3549197;78;21030;-66
2022/03/10 21:38:25;;;;;;;40.43;20.00;;;;;;;-4.46;47.82;102708.13;3501408;78;21468;-66
2022/03/10 21:43:20;;;;;;;32.93;17.00;;;;;;;-4.52;48.07;102716.75;3558855;78;20943;-66
2022/03/10 21:48:12;;;;;;;37.13;16.12;;;;;;;-4.56;48.45;102720.58;3569948;78;21495;-66
2022/03/10 21:53:04;;;;;;;34.15;17.20;;;;;;;-4.63;48.71;102717.73;3560313;78;21556;-66
2022/03/10 21:58:00;;;;;;;35.35;17.32;;;;;;;-4.74;48.90;102718.54;3603764;78;21479;-66
2022/03/10 22:02:54;;;;;;;37.88;19.30;;;;;;;-4.95;49.17;102720.86;3575792;78;20931;-66
2022/03/10 22:07:44;;;;;;;42.20;17.12;;;;;;;-5.06;49.58;102723.12;3516554;78;20947;-66
2022/03/10 22:12:35;;;;;;;40.55;18.37;;;;;;;-5.17;49.90;102732.08;3549349;79;21433;-66
2022/03/10 22:17:28;;;;;;;30.80;16.70;;;;;;;-5.26;50.27;102728.85;3494599;78;21422;-66
2022/03/10 22:22:20;;;;;;;36.65;19.12;;;;;;;-5.26;50.41;102728.85;3504306;77;20959;-66
2022/03/10 22:27:12;;;;;;;36.55;17.98;;;;;;;-5.28;50.74;102724.87;3525179;79;20950;-66
2022/03/10 22:32:05;;;;;;;35.35;16.15;;;;;;;-5.30;50.70;102729.25;3540204;78;20938;-66
2022/03/10 22:36:56;;;;;;;34.63;16.87;;;;;;;-5.39;50.89;102717.70;3447238;78;20930;-66
2022/03/10 22:41:49;;;;;;;37.15;17.25;;;;;;;-5.45;50.98;102715.38;3580053;78;21880;-67
2022/03/10 22:46:41;;;;;;;32.40;17.42;;;;;;;-5.48;51.11;102704.88;3521072;78;21002;-66